createdAt,value
2023-04-18T00:00:18.543Z,10.72
2023-04-18T00:02:47.504Z,10.74
2023-04-18T00:05:18.272Z,10.76
2023-04-18T00:07:45.731Z,10.78
2023-04-18T00:10:13.701Z,10.81
2023-04-18T00:12:43.132Z,10.77
2023-04-18T00:15:12.463Z,10.75
2023-04-18T00:17:40.400Z,10.71
2023-04-18T00:20:13.582Z,10.69
2023-04-18T00:22:42.981Z,10.66
2023-04-18T00:25:11.374Z,10.63
2023-04-18T00:27:39.474Z,10.67
2023-04-18T00:30:08.288Z,10.67
2023-04-18T00:32:38.804Z,10.71
2023-04-18T00:35:06.881Z,10.72
2023-04-18T00:37:35.921Z,10.73
2023-04-18T00:40:05.676Z,10.71
2023-04-18T00:42:33.598Z,10.68
2023-04-18T00:45:01.234Z,10.63
2023-04-18T00:47:28.741Z,10.63
2023-04-18T00:49:57.221Z,10.62
2023-04-18T00:52:27.335Z,10.59
2023-04-18T00:54:56.284Z,10.58
2023-04-18T00:57:24.594Z,10.61
2023-04-18T00:59:52.257Z,10.59
2023-04-18T01:02:20.351Z,10.55
2023-04-18T01:04:47.702Z,10.50
2023-04-18T01:07:15.333Z,10.49
2023-04-18T01:09:42.885Z,10.49
2023-04-18T01:12:11.625Z,10.47
2023-04-18T01:14:41.759Z,10.45
2023-04-18T01:17:10.756Z,10.43
2023-04-18T01:19:38.238Z,10.42
2023-04-18T01:22:08.743Z,10.46
2023-04-18T01:24:37.719Z,10.47
2023-04-18T01:27:06.002Z,10.47
2023-04-18T01:29:34.489Z,10.48
2023-04-18T01:32:02.754Z,10.48
2023-04-18T01:34:30.310Z,10.50
2023-04-18T01:36:57.901Z,10.53
2023-04-18T01:39:25.326Z,10.58
2023-04-18T01:41:54.813Z,10.62
2023-04-18T01:44:22.041Z,10.62
2023-04-18T01:46:49.437Z,10.66
2023-04-18T01:49:16.900Z,10.63
2023-04-18T01:51:44.410Z,10.64
2023-04-18T01:54:12.207Z,10.61
2023-04-18T01:56:39.735Z,10.62
2023-04-18T01:59:08.658Z,10.61
2023-04-18T02:01:36.173Z,10.61
2023-04-18T02:04:03.835Z,10.61
2023-04-18T02:06:31.451Z,10.59
2023-04-18T02:09:00.605Z,10.58
2023-04-18T02:11:27.891Z,10.56
2023-04-18T02:13:55.797Z,10.53
2023-04-18T02:16:24.808Z,10.50
2023-04-18T02:18:52.642Z,10.50
2023-04-18T02:21:20.059Z,10.47
2023-04-18T02:23:49.506Z,10.49
2023-04-18T02:26:16.855Z,10.44
2023-04-18T02:28:44.118Z,10.41
2023-04-18T02:31:14.894Z,10.38
2023-04-18T02:33:45.827Z,10.41
2023-04-18T02:36:14.051Z,10.42
2023-04-18T02:38:43.624Z,10.43
2023-04-18T02:41:15.349Z,10.44
2023-04-18T02:43:43.215Z,10.44
2023-04-18T02:46:11.200Z,10.39
2023-04-18T02:48:38.686Z,10.32
2023-04-18T02:51:09.226Z,10.23
2023-04-18T02:53:38.486Z,10.19
2023-04-18T02:56:07.007Z,10.18
2023-04-18T02:58:54.427Z,10.21
2023-04-18T03:01:47.919Z,10.28
2023-04-18T03:04:18.725Z,10.32
2023-04-18T03:06:58.073Z,10.35
2023-04-18T03:09:27.176Z,10.31
2023-04-18T03:11:59.624Z,10.41
2023-04-18T03:14:30.012Z,10.43
2023-04-18T03:16:57.380Z,10.48
2023-04-18T03:19:29.304Z,10.55
2023-04-18T03:22:01.172Z,10.57
2023-04-18T03:24:28.542Z,10.58
2023-04-18T03:27:00.685Z,10.58
2023-04-18T03:29:28.825Z,10.56
2023-04-18T03:31:56.465Z,10.58
2023-04-18T03:34:24.178Z,10.60
2023-04-18T03:36:52.795Z,10.63
2023-04-18T03:39:21.523Z,10.63
2023-04-18T03:41:49.922Z,10.68
2023-04-18T03:44:18.035Z,10.73
2023-04-18T03:46:46.385Z,10.79
2023-04-18T03:49:13.883Z,10.81
2023-04-18T03:51:47.977Z,10.87
2023-04-18T03:54:15.984Z,10.85
2023-04-18T03:56:45.506Z,10.88
2023-04-18T03:59:14.168Z,10.89
2023-04-18T04:01:44.613Z,10.91
2023-04-18T04:04:14.204Z,10.93
2023-04-18T04:06:44.297Z,10.95
2023-04-18T04:09:22.592Z,10.97
2023-04-18T04:11:51.907Z,11.00
2023-04-18T04:14:19.733Z,10.99
2023-04-18T04:16:47.195Z,11.00
2023-04-18T04:19:17.210Z,11.01
2023-04-18T04:21:53.546Z,11.05
2023-04-18T04:24:22.815Z,11.08
2023-04-18T04:26:53.373Z,11.11
2023-04-18T04:29:24.709Z,11.17
2023-04-18T04:31:53.659Z,11.19
2023-04-18T04:34:34.520Z,11.23
2023-04-18T04:37:05.026Z,11.25
2023-04-18T04:39:37.820Z,11.31
2023-04-18T04:42:28.709Z,11.33
2023-04-18T04:45:12.621Z,11.37
2023-04-18T04:47:40.195Z,11.39
2023-04-18T04:50:14.777Z,11.46
2023-04-18T04:52:42.680Z,11.51
2023-04-18T04:55:10.960Z,11.56
2023-04-18T04:57:39.668Z,11.60
2023-04-18T05:00:24.478Z,11.62
2023-04-18T05:02:56.497Z,11.67
2023-04-18T05:05:25.753Z,11.74
2023-04-18T05:07:53.285Z,11.78
2023-04-18T05:10:21.804Z,11.81
2023-04-18T05:12:50.592Z,11.89
2023-04-18T05:15:18.675Z,11.92
2023-04-18T05:17:46.416Z,11.96
2023-04-18T05:20:13.951Z,11.95
2023-04-18T05:22:41.432Z,11.99
2023-04-18T05:25:09.430Z,11.99
2023-04-18T05:27:36.774Z,11.95
2023-04-18T05:30:06.983Z,11.99
2023-04-18T05:32:34.623Z,11.96
2023-04-18T05:35:02.151Z,11.92
2023-04-18T05:37:30.674Z,11.90
2023-04-18T05:39:59.918Z,11.81
2023-04-18T05:42:28.293Z,11.85
2023-04-18T05:44:55.794Z,11.88
2023-04-18T05:47:27.056Z,11.95
2023-04-18T05:49:55.152Z,11.97
2023-04-18T05:52:23.002Z,11.96
2023-04-18T05:54:51.013Z,11.97
2023-04-18T05:57:18.502Z,11.97
2023-04-18T05:59:45.941Z,12.02
2023-04-18T06:02:13.759Z,12.04
2023-04-18T06:04:43.562Z,12.08
2023-04-18T06:07:11.837Z,12.16
2023-04-18T06:09:39.138Z,12.17
2023-04-18T06:12:06.600Z,12.19
2023-04-18T06:14:34.166Z,12.19
2023-04-18T06:17:01.391Z,12.21
2023-04-18T06:19:28.970Z,12.27
2023-04-18T06:21:57.681Z,12.34
2023-04-18T06:24:25.067Z,12.43
2023-04-18T06:26:52.558Z,12.51
2023-04-18T06:29:19.942Z,12.52
2023-04-18T06:31:48.464Z,12.75
2023-04-18T06:34:16.632Z,13.12
2023-04-18T06:36:44.195Z,13.49
2023-04-18T06:39:13.221Z,13.88
2023-04-18T06:41:40.601Z,14.15
2023-04-18T06:44:08.108Z,14.32
2023-04-18T06:46:35.912Z,14.42
2023-04-18T06:49:03.966Z,14.59
2023-04-18T06:51:31.797Z,14.86
2023-04-18T06:53:59.100Z,15.07
2023-04-18T06:56:27.979Z,15.21
2023-04-18T06:58:55.557Z,15.40
2023-04-18T07:01:22.926Z,15.35
2023-04-18T07:03:50.395Z,15.00
2023-04-18T07:06:18.857Z,14.87
2023-04-18T07:08:46.470Z,14.92
2023-04-18T07:11:13.822Z,15.02
2023-04-18T07:13:43.263Z,15.11
2023-04-18T07:16:10.715Z,15.26
2023-04-18T07:18:38.728Z,15.13
2023-04-18T07:21:09.271Z,15.16
2023-04-18T07:23:37.152Z,15.11
2023-04-18T07:26:05.930Z,15.01
2023-04-18T07:28:33.609Z,14.99
2023-04-18T07:31:03.872Z,14.93
2023-04-18T07:33:33.899Z,14.80
2023-04-18T07:36:02.029Z,14.80
2023-04-18T07:38:29.515Z,15.03
2023-04-18T07:40:57.792Z,15.38
2023-04-18T07:43:25.175Z,15.54
2023-04-18T07:45:53.204Z,15.74
2023-04-18T07:48:22.829Z,15.91
2023-04-18T07:50:50.354Z,16.06
2023-04-18T07:53:17.985Z,16.11
2023-04-18T07:55:45.798Z,16.17
2023-04-18T07:58:13.712Z,16.33
2023-04-18T08:00:42.839Z,16.37
2023-04-18T08:03:12.380Z,16.35
2023-04-18T08:05:43.108Z,16.35
2023-04-18T08:08:12.127Z,16.21
2023-04-18T08:10:39.697Z,16.08
2023-04-18T08:13:08.202Z,15.82
2023-04-18T08:15:35.956Z,15.64
2023-04-18T08:18:03.415Z,15.65
2023-04-18T08:20:31.113Z,15.76
2023-04-18T08:23:05.618Z,15.88
2023-04-18T08:25:36.630Z,16.09
2023-04-18T08:28:04.573Z,16.33
2023-04-18T08:30:32.015Z,16.56
2023-04-18T08:32:59.781Z,16.88
2023-04-18T08:35:27.418Z,17.25
2023-04-18T08:37:54.990Z,17.46
2023-04-18T08:40:24.255Z,17.56
2023-04-18T08:42:53.634Z,17.68
2023-04-18T08:45:21.371Z,17.88
2023-04-18T08:47:48.864Z,17.96
2023-04-18T08:50:17.462Z,17.74
2023-04-18T08:52:48.242Z,17.38
2023-04-18T08:55:16.502Z,17.01
2023-04-18T08:57:45.490Z,16.81
2023-04-18T09:00:14.094Z,16.81
2023-04-18T09:02:47.293Z,16.88
2023-04-18T09:05:16.640Z,16.81
2023-04-18T09:07:44.277Z,16.85
2023-04-18T09:10:12.793Z,16.86
2023-04-18T09:12:52.474Z,16.79
2023-04-18T09:15:23.460Z,16.67
2023-04-18T09:17:56.489Z,16.50
2023-04-18T09:20:30.869Z,16.45
2023-04-18T09:23:00.896Z,16.39
2023-04-18T09:25:29.973Z,16.21
2023-04-18T09:28:01.068Z,16.04
2023-04-18T09:30:34.423Z,15.92
2023-04-18T09:33:06.386Z,15.73
2023-04-18T09:35:38.082Z,15.68
2023-04-18T09:38:06.473Z,15.70
2023-04-18T09:40:34.022Z,15.75
2023-04-18T09:43:18.366Z,15.76
2023-04-18T09:45:46.977Z,15.74
2023-04-18T09:48:14.402Z,15.79
2023-04-18T09:50:42.661Z,15.75
2023-04-18T09:53:12.065Z,15.73
2023-04-18T09:55:40.400Z,15.70
2023-04-18T09:58:10.678Z,15.71
2023-04-18T10:00:40.135Z,15.70
2023-04-18T10:03:09.913Z,15.69
2023-04-18T10:05:41.905Z,15.67
2023-04-18T10:08:10.570Z,15.67
2023-04-18T10:10:39.059Z,15.65
2023-04-18T10:13:11.294Z,15.58
2023-04-18T10:15:51.686Z,15.70
2023-04-18T10:18:23.775Z,15.67
2023-04-18T10:21:00.615Z,15.69
2023-04-18T10:23:36.293Z,15.68
2023-04-18T10:26:04.766Z,15.60
2023-04-18T10:28:53.879Z,15.54
2023-04-18T10:31:22.571Z,15.52
2023-04-18T10:34:04.001Z,15.49
2023-04-18T10:36:32.661Z,15.41
2023-04-18T10:39:03.160Z,15.36
2023-04-18T10:41:32.530Z,15.30
2023-04-18T10:44:22.430Z,15.41
2023-04-18T10:47:18.629Z,15.50
2023-04-18T10:49:57.932Z,15.54
2023-04-18T10:52:25.808Z,15.57
2023-04-18T10:54:59.236Z,15.62
2023-04-18T10:57:37.986Z,15.63
2023-04-18T11:00:09.436Z,15.67
2023-04-18T11:02:37.346Z,15.70
2023-04-18T11:05:06.969Z,15.76
2023-04-18T11:07:35.781Z,15.79
2023-04-18T11:10:04.077Z,15.89
2023-04-18T11:12:34.558Z,15.96
2023-04-18T11:15:04.348Z,16.14
2023-04-18T11:17:34.908Z,16.18
2023-04-18T11:20:06.871Z,16.20
2023-04-18T11:22:43.299Z,16.31
2023-04-18T11:25:11.119Z,16.32
2023-04-18T11:27:41.746Z,16.28
2023-04-18T11:30:10.220Z,16.39
2023-04-18T11:32:39.368Z,16.51
2023-04-18T11:35:08.949Z,16.45
2023-04-18T11:37:36.415Z,16.33
2023-04-18T11:40:04.360Z,16.30
2023-04-18T11:42:34.882Z,16.29
2023-04-18T11:45:03.240Z,16.29
2023-04-18T11:47:35.143Z,16.24
2023-04-18T11:50:05.881Z,16.21
2023-04-18T11:52:34.704Z,16.16
2023-04-18T11:55:13.551Z,16.24
2023-04-18T11:57:42.210Z,16.18
2023-04-18T12:00:12.634Z,16.12
2023-04-18T12:02:42.799Z,16.04
2023-04-18T12:05:14.913Z,16.03
2023-04-18T12:07:44.747Z,16.03
2023-04-18T12:10:24.988Z,16.01
2023-04-18T12:12:54.453Z,15.85
2023-04-18T12:15:28.281Z,15.97
2023-04-18T12:18:00.706Z,16.03
2023-04-18T12:20:36.670Z,15.97
2023-04-18T12:23:04.490Z,15.96
2023-04-18T12:25:32.974Z,15.99
2023-04-18T12:28:02.022Z,16.03
2023-04-18T12:30:31.067Z,16.09
2023-04-18T12:33:00.149Z,16.14
2023-04-18T12:35:28.592Z,16.16
2023-04-18T12:37:59.994Z,16.16
2023-04-18T12:40:30.225Z,16.12
2023-04-18T12:42:57.625Z,16.10
2023-04-18T12:45:25.466Z,16.09
2023-04-18T12:47:53.746Z,16.12
2023-04-18T12:50:23.233Z,16.09
2023-04-18T12:52:52.048Z,16.19
2023-04-18T12:55:22.771Z,16.46
2023-04-18T12:57:51.812Z,16.87
2023-04-18T13:00:19.310Z,17.44
2023-04-18T13:02:46.864Z,18.03
2023-04-18T13:05:16.450Z,18.58
2023-04-18T13:07:46.365Z,19.21
2023-04-18T13:10:15.028Z,19.33
2023-04-18T13:12:44.011Z,19.19
2023-04-18T13:15:12.184Z,18.92
2023-04-18T13:17:40.151Z,18.52
2023-04-18T13:20:10.788Z,17.99
2023-04-18T13:22:38.601Z,17.64
2023-04-18T13:25:17.071Z,17.34
2023-04-18T13:27:46.848Z,17.18
2023-04-18T13:30:14.457Z,17.01
2023-04-18T13:32:44.027Z,16.81
2023-04-18T13:35:11.809Z,16.58
2023-04-18T13:37:39.786Z,16.32
2023-04-18T13:40:08.373Z,16.21
2023-04-18T13:42:37.388Z,16.10
2023-04-18T13:45:10.344Z,16.13
2023-04-18T13:47:39.580Z,16.11
2023-04-18T13:50:08.388Z,16.04
2023-04-18T13:52:36.419Z,15.90
2023-04-18T13:55:04.151Z,15.86
2023-04-18T13:57:34.132Z,15.85
2023-04-18T14:00:13.966Z,15.80
2023-04-18T14:02:42.680Z,15.66
2023-04-18T14:05:10.753Z,15.61
2023-04-18T14:07:38.845Z,15.60
2023-04-18T14:10:07.555Z,15.55
2023-04-18T14:12:35.120Z,15.49
2023-04-18T14:15:02.592Z,15.50
2023-04-18T14:17:34.150Z,15.51
2023-04-18T14:20:02.456Z,15.52
2023-04-18T14:22:31.270Z,15.53
2023-04-18T14:24:58.991Z,15.53
2023-04-18T14:27:26.659Z,15.61
2023-04-18T14:29:54.540Z,15.69
2023-04-18T14:32:21.741Z,15.70
2023-04-18T14:34:50.516Z,15.67
2023-04-18T14:37:17.878Z,15.60
2023-04-18T14:39:45.305Z,15.61
2023-04-18T14:42:12.756Z,15.60
2023-04-18T14:44:40.575Z,15.57
2023-04-18T14:47:08.007Z,15.58
2023-04-18T14:49:35.520Z,15.60
2023-04-18T14:52:04.976Z,15.55
2023-04-18T14:54:33.130Z,15.51
2023-04-18T14:57:03.523Z,15.45
2023-04-18T14:59:30.994Z,15.43
2023-04-18T15:01:59.728Z,15.38
2023-04-18T15:04:28.930Z,15.33
2023-04-18T15:06:56.542Z,15.24
2023-04-18T15:09:25.275Z,15.23
2023-04-18T15:11:52.680Z,15.20
2023-04-18T15:14:19.989Z,15.17
2023-04-18T15:16:49.599Z,15.16
2023-04-18T15:19:17.164Z,15.16
2023-04-18T15:21:45.068Z,15.13
2023-04-18T15:24:12.676Z,15.10
2023-04-18T15:26:42.607Z,15.08
2023-04-18T15:29:10.063Z,15.05
2023-04-18T15:31:39.056Z,14.98
2023-04-18T15:34:07.344Z,14.94
2023-04-18T15:36:36.139Z,14.90
2023-04-18T15:39:05.784Z,14.88
2023-04-18T15:41:35.486Z,14.81
2023-04-18T15:44:06.077Z,14.86
2023-04-18T15:46:35.508Z,14.87
2023-04-18T15:49:02.890Z,14.86
2023-04-18T15:51:30.477Z,14.79
2023-04-18T15:53:58.002Z,14.80
2023-04-18T15:56:26.923Z,14.75
2023-04-18T15:58:56.727Z,14.72
2023-04-18T16:01:26.929Z,14.70
2023-04-18T16:03:54.681Z,14.66
2023-04-18T16:06:23.593Z,14.63
2023-04-18T16:08:51.160Z,14.61
2023-04-18T16:11:20.751Z,14.57
2023-04-18T16:13:48.586Z,14.55
2023-04-18T16:16:18.641Z,14.51
2023-04-18T16:18:47.678Z,14.42
2023-04-18T16:21:15.949Z,14.40
2023-04-18T16:23:47.666Z,14.33
2023-04-18T16:26:17.338Z,14.34
2023-04-18T16:28:47.245Z,14.35
2023-04-18T16:31:15.494Z,14.26
2023-04-18T16:33:45.533Z,14.22
2023-04-18T16:36:39.558Z,14.17
2023-04-18T16:39:08.707Z,14.11
2023-04-18T16:41:36.077Z,14.07
2023-04-18T16:44:07.975Z,14.01
2023-04-18T16:46:37.524Z,14.01
2023-04-18T16:49:04.959Z,13.97
2023-04-18T16:51:41.249Z,13.96
2023-04-18T16:54:22.568Z,13.93
2023-04-18T16:57:19.444Z,13.95
2023-04-18T16:59:49.888Z,13.96
2023-04-18T17:02:44.644Z,13.98
2023-04-18T17:05:19.378Z,13.97
2023-04-18T17:07:49.934Z,13.95
2023-04-18T17:10:18.100Z,13.91
2023-04-18T17:12:49.197Z,13.87
2023-04-18T17:15:20.974Z,13.87
2023-04-18T17:17:48.571Z,13.88
2023-04-18T17:20:19.592Z,13.89
2023-04-18T17:22:51.438Z,13.86
2023-04-18T17:25:21.208Z,13.83
2023-04-18T17:27:49.477Z,13.82
2023-04-18T17:30:17.247Z,13.79
2023-04-18T17:32:46.329Z,13.74
2023-04-18T17:35:17.699Z,13.70
2023-04-18T17:37:47.361Z,13.65
2023-04-18T17:40:17.279Z,13.65
2023-04-18T17:42:47.698Z,13.63
2023-04-18T17:45:26.518Z,13.60
2023-04-18T17:47:54.940Z,13.58
2023-04-18T17:50:23.728Z,13.57
2023-04-18T17:52:55.163Z,13.58
2023-04-18T17:55:24.375Z,13.59
2023-04-18T17:57:51.687Z,13.64
2023-04-18T18:00:22.067Z,13.68
2023-04-18T18:02:53.088Z,13.71
2023-04-18T18:05:23.383Z,13.69
2023-04-18T18:07:54.771Z,13.64
2023-04-18T18:10:24.666Z,13.58
2023-04-18T18:12:52.311Z,13.54
2023-04-18T18:15:20.368Z,13.49
2023-04-18T18:17:48.939Z,13.43
2023-04-18T18:20:17.244Z,13.41
2023-04-18T18:22:45.009Z,13.38
2023-04-18T18:25:13.023Z,13.31
2023-04-18T18:27:42.088Z,13.30
2023-04-18T18:30:09.833Z,13.28
2023-04-18T18:32:37.288Z,13.25
2023-04-18T18:35:06.249Z,13.22
2023-04-18T18:37:33.687Z,13.20
2023-04-18T18:40:05.108Z,13.14
2023-04-18T18:42:35.743Z,13.13
2023-04-18T18:45:06.464Z,13.13
2023-04-18T18:47:39.682Z,13.12
2023-04-18T18:50:08.081Z,13.06
2023-04-18T18:52:37.363Z,13.01
2023-04-18T18:55:14.209Z,12.96
2023-04-18T18:57:41.537Z,12.93
2023-04-18T19:00:11.654Z,12.85
2023-04-18T19:02:39.767Z,12.80
2023-04-18T19:05:07.828Z,12.79
2023-04-18T19:07:35.127Z,12.78
2023-04-18T19:10:03.529Z,12.74
2023-04-18T19:12:34.393Z,12.69
2023-04-18T19:15:02.346Z,12.67
2023-04-18T19:17:36.986Z,12.60
2023-04-18T19:20:05.053Z,12.55
2023-04-18T19:22:33.574Z,12.52
2023-04-18T19:25:01.325Z,12.48
2023-04-18T19:27:32.456Z,12.42
2023-04-18T19:29:59.911Z,12.42
2023-04-18T19:32:27.378Z,12.46
2023-04-18T19:34:56.122Z,12.48
2023-04-18T19:37:23.619Z,12.48
2023-04-18T19:39:51.012Z,12.45
2023-04-18T19:42:18.602Z,12.43
2023-04-18T19:44:46.183Z,12.42
2023-04-18T19:47:13.623Z,12.40
2023-04-18T19:49:40.983Z,12.36
2023-04-18T19:52:09.744Z,12.31
2023-04-18T19:54:37.308Z,12.27
2023-04-18T19:57:06.422Z,12.23
2023-04-18T19:59:33.946Z,12.21
2023-04-18T20:02:04.351Z,12.17
2023-04-18T20:04:34.378Z,12.17
2023-04-18T20:07:02.268Z,12.14
2023-04-18T20:09:33.671Z,12.08
2023-04-18T20:12:02.165Z,12.05
2023-04-18T20:14:29.903Z,12.02
2023-04-18T20:16:57.554Z,11.96
2023-04-18T20:19:25.875Z,11.91
2023-04-18T20:21:53.234Z,11.87
2023-04-18T20:24:21.345Z,11.85
2023-04-18T20:26:51.481Z,11.80
2023-04-18T20:29:18.724Z,11.78
2023-04-18T20:31:46.318Z,11.73
2023-04-18T20:34:13.703Z,11.69
2023-04-18T20:36:41.679Z,11.70
2023-04-18T20:39:09.556Z,11.65
2023-04-18T20:41:37.188Z,11.64
2023-04-18T20:44:06.093Z,11.60
2023-04-18T20:46:33.487Z,11.57
2023-04-18T20:49:00.944Z,11.53
2023-04-18T20:51:28.410Z,11.54
2023-04-18T20:53:55.942Z,11.55
2023-04-18T20:56:23.336Z,11.46
2023-04-18T20:58:50.892Z,11.49
2023-04-18T21:01:19.732Z,11.50
2023-04-18T21:03:47.289Z,11.47
2023-04-18T21:06:16.616Z,11.46
2023-04-18T21:08:43.997Z,11.47
2023-04-18T21:11:11.310Z,11.50
2023-04-18T21:13:38.656Z,11.51
2023-04-18T21:16:08.001Z,11.48
2023-04-18T21:18:36.914Z,11.46
2023-04-18T21:21:04.530Z,11.44
2023-04-18T21:23:31.791Z,11.44
2023-04-18T21:25:59.293Z,11.38
2023-04-18T21:28:26.623Z,11.39
2023-04-18T21:30:53.992Z,11.36
2023-04-18T21:33:21.366Z,11.30
2023-04-18T21:35:50.109Z,11.26
2023-04-18T21:38:17.627Z,11.27
2023-04-18T21:40:45.095Z,11.24
2023-04-18T21:43:12.398Z,11.17
2023-04-18T21:45:39.738Z,11.16
2023-04-18T21:48:09.981Z,11.17
2023-04-18T21:50:37.450Z,11.16
2023-04-18T21:53:06.321Z,11.13
2023-04-18T21:55:33.585Z,11.11
2023-04-18T21:58:01.182Z,11.07
2023-04-18T22:00:28.536Z,11.05
2023-04-18T22:02:56.163Z,11.06
2023-04-18T22:05:23.508Z,11.05
2023-04-18T22:07:57.958Z,11.06
2023-04-18T22:10:27.995Z,11.09
2023-04-18T22:12:56.045Z,11.08
2023-04-18T22:15:24.597Z,11.13
2023-04-18T22:17:51.930Z,11.18
2023-04-18T22:20:19.313Z,11.19
2023-04-18T22:22:46.728Z,11.22
2023-04-18T22:25:14.002Z,11.23
2023-04-18T22:27:43.289Z,11.23
2023-04-18T22:30:11.962Z,11.22
2023-04-18T22:32:39.574Z,11.19
2023-04-18T22:35:08.393Z,11.11
2023-04-18T22:37:35.893Z,11.09
2023-04-18T22:40:05.272Z,11.08
2023-04-18T22:42:33.701Z,11.11
2023-04-18T22:45:02.631Z,11.12
2023-04-18T22:47:31.915Z,11.11
2023-04-18T22:49:59.395Z,11.11
2023-04-18T22:52:26.769Z,11.12
2023-04-18T22:54:54.343Z,11.10
2023-04-18T22:57:22.194Z,11.04
2023-04-18T22:59:49.470Z,11.04
2023-04-18T23:02:18.292Z,11.01
2023-04-18T23:04:46.420Z,10.95
2023-04-18T23:07:13.918Z,10.96
2023-04-18T23:09:41.678Z,10.96
2023-04-18T23:12:09.081Z,10.95
2023-04-18T23:14:36.520Z,10.96
2023-04-18T23:17:03.868Z,10.93
2023-04-18T23:19:32.984Z,10.92
2023-04-18T23:22:00.372Z,10.90
2023-04-18T23:24:27.809Z,10.88
2023-04-18T23:26:55.065Z,10.87
2023-04-18T23:29:22.435Z,10.81
2023-04-18T23:31:49.822Z,10.78
2023-04-18T23:34:17.474Z,10.73
2023-04-18T23:36:46.730Z,10.73
2023-04-18T23:39:14.156Z,10.74
2023-04-18T23:41:41.543Z,10.78
2023-04-18T23:44:09.111Z,10.79
2023-04-18T23:46:36.764Z,10.76
2023-04-18T23:49:04.300Z,10.74
2023-04-18T23:51:31.664Z,10.70
2023-04-18T23:54:00.542Z,10.69
2023-04-18T23:56:28.264Z,10.67
2023-04-18T23:58:55.567Z,10.68
